TAF and METAR

METAR for Kaolack Airport

GOOK 011500Z 14006KT CAVOK 43/07 Q1008
Report created 1. apr 17:00
wind 6 knots from SE (140°) Clear sky Temperature 43° with dewpoint at 7° (Humidity 11.63%) Pressure 1008 hPa
No TAF available for Kaolack Airport